Time;durP1;ratioP1;P1;durP2;ratioP2;P2;SDS_P1;SDS_P2;PMS_P1;PMS_P2;Temp;Humidity;BMP_temperature;BMP_pressure;BME280_temperature;BME280_humidity;BME280_pressure;Samples;Min_cycle;Max_cycle;Signal;HPM_P1;HPM_P2
2022/03/25 00:00:36;;;;;;;;;;;5.00;99.90;;;;;;5088807;28;20087;-75
2022/03/25 00:03:04;;;;;;;47.15;26.48;;;5.00;99.90;;;;;;5089988;28;19928;-76
2022/03/25 00:05:30;;;;;;;51.92;26.10;;;5.00;99.90;;;;;;5090179;28;20048;-76
2022/03/25 00:07:56;;;;;;;;;;;5.00;99.90;;;;;;5072440;28;20096;-76
2022/03/25 00:10:21;;;;;;;46.42;26.80;;;5.00;99.90;;;;;;5091311;28;20380;-76
2022/03/25 00:12:47;;;;;;;;;;;5.00;99.90;;;;;;5092807;28;20047;-76
2022/03/25 00:15:12;;;;;;;51.45;26.50;;;4.90;99.90;;;;;;5073713;28;20371;-76
2022/03/25 00:17:38;;;;;;;;;;;4.90;99.90;;;;;;5074319;28;20125;-76
2022/03/25 00:20:05;;;;;;;45.15;24.45;;;4.90;99.90;;;;;;5091642;28;19920;-76
2022/03/25 00:22:31;;;;;;;49.05;25.95;;;4.90;99.90;;;;;;5074165;28;20052;-76
2022/03/25 00:24:56;;;;;;;51.00;26.88;;;4.90;99.90;;;;;;5092438;28;20046;-77
2022/03/25 00:27:23;;;;;;;;;;;4.90;99.90;;;;;;5091781;28;20055;-76
2022/03/25 00:29:48;;;;;;;49.38;25.65;;;4.90;99.90;;;;;;5074103;28;19927;-76
2022/03/25 00:32:16;;;;;;;44.25;25.52;;;4.90;99.90;;;;;;5073294;28;20044;-76
2022/03/25 00:34:41;;;;;;;52.00;27.45;;;4.90;99.90;;;;;;5073805;28;20044;-76
2022/03/25 00:37:07;;;;;;;46.88;25.42;;;4.90;99.90;;;;;;5091952;28;20449;-76
2022/03/25 00:39:32;;;;;;;;;;;4.90;99.90;;;;;;5075477;28;20075;-76
2022/03/25 00:41:58;;;;;;;49.17;25.98;;;4.90;99.90;;;;;;5076448;28;19946;-76
2022/03/25 00:44:24;;;;;;;;;;;4.80;99.90;;;;;;5096404;28;20672;-76
2022/03/25 00:46:50;;;;;;;44.85;24.90;;;4.90;99.90;;;;;;5095927;28;20379;-76
2022/03/25 00:49:18;;;;;;;41.90;24.55;;;4.80;99.90;;;;;;5076946;28;20051;-76
2022/03/25 00:51:44;;;;;;;47.53;25.65;;;4.80;99.90;;;;;;5095562;28;20403;-76
2022/03/25 00:54:10;;;;;;;;;;;4.70;99.90;;;;;;5077866;28;20040;-76
2022/03/25 00:56:35;;;;;;;46.75;25.23;;;4.70;99.90;;;;;;5077214;28;19927;-76
2022/03/25 00:59:01;;;;;;;47.22;25.63;;;4.70;99.90;;;;;;5077723;28;20509;-75
2022/03/25 01:01:27;;;;;;;42.80;23.00;;;4.60;99.90;;;;;;5095415;28;20044;-76
2022/03/25 01:03:52;;;;;;;;;;;4.60;99.90;;;;;;5076982;28;20051;-76
2022/03/25 01:06:18;;;;;;;42.47;23.70;;;4.60;99.90;;;;;;5095442;28;19924;-76
2022/03/25 01:08:44;;;;;;;;;;;4.60;99.90;;;;;;5096434;28;20455;-75
2022/03/25 01:11:12;;;;;;;39.53;22.73;;;4.60;99.90;;;;;;5094098;28;19950;-76
2022/03/25 01:13:38;;;;;;;45.15;23.75;;;4.60;99.90;;;;;;5095490;28;20059;-75
2022/03/25 01:16:04;;;;;;;;;;;4.70;99.90;;;;;;5095396;28;20043;-75
2022/03/25 01:18:33;;;;;;;39.35;21.05;;;4.70;99.90;;;;;;5094686;28;19920;-75
2022/03/25 01:20:59;;;;;;;42.47;23.25;;;4.60;99.90;;;;;;5094667;28;20051;-75
2022/03/25 01:23:25;;;;;;;;;;;4.60;99.90;;;;;;5094857;28;20047;-75
2022/03/25 01:25:51;;;;;;;43.15;22.95;;;4.60;99.90;;;;;;5094871;28;19919;-76
2022/03/25 01:28:16;;;;;;;;;;;4.60;99.90;;;;;;5095043;28;20040;-75
2022/03/25 01:30:43;;;;;;;47.45;24.45;;;4.60;99.90;;;;;;5094173;28;19942;-76
2022/03/25 01:33:09;;;;;;;;;;;4.60;99.90;;;;;;5095034;28;20400;-75
2022/03/25 01:35:35;;;;;;;46.57;24.77;;;4.50;99.90;;;;;;5094885;28;19919;-76
2022/03/25 01:38:01;;;;;;;;;;;4.50;99.90;;;;;;5076939;28;20047;-76
2022/03/25 01:40:27;;;;;;;45.03;23.73;;;4.50;99.90;;;;;;5094086;28;19920;-76
2022/03/25 01:42:52;;;;;;;41.70;24.45;;;4.50;99.90;;;;;;5076592;28;20105;-76
2022/03/25 01:45:34;;;;;;;42.70;23.58;;;4.50;99.90;;;;;;5075906;28;20044;-76
2022/03/25 01:48:01;;;;;;;42.75;22.23;;;4.40;99.90;;;;;;5094786;28;20403;-76
2022/03/25 01:50:27;;;;;;;42.22;23.13;;;4.40;99.90;;;;;;5093500;28;20430;-76
2022/03/25 01:52:53;;;;;;;43.85;23.88;;;4.40;99.90;;;;;;5094127;28;20048;-76
2022/03/25 01:55:26;;;;;;;;;;;4.30;99.90;;;;;;5094620;28;20479;-76
2022/03/25 01:57:54;;;;;;;37.60;21.40;;;4.40;99.90;;;;;;5076492;28;19927;-75
2022/03/25 02:00:20;;;;;;;44.10;22.73;;;4.30;99.90;;;;;;5075111;28;20475;-75
2022/03/25 02:02:46;;;;;;;41.33;22.67;;;4.30;99.90;;;;;;5094405;28;20098;-76
2022/03/25 02:05:11;;;;;;;;;;;4.30;99.90;;;;;;5076722;28;20059;-76
2022/03/25 02:07:37;;;;;;;43.35;22.50;;;4.30;99.90;;;;;;5075712;28;19970;-76
2022/03/25 02:10:05;;;;;;;;;;;4.30;99.90;;;;;;5077000;28;20059;-76
2022/03/25 02:12:31;;;;;;;;;;;4.30;99.90;;;;;;5076600;28;20339;-75
2022/03/25 02:14:57;;;;;;;41.78;23.10;;;4.20;99.90;;;;;;5093470;28;19920;-75
2022/03/25 02:17:23;;;;;;;44.20;23.75;;;4.20;99.90;;;;;;5075973;28;20048;-76
2022/03/25 02:19:49;;;;;;;;;;;4.20;99.90;;;;;;5075768;28;20065;-76
2022/03/25 02:22:15;;;;;;;43.88;24.45;;;4.10;99.90;;;;;;5093856;28;19920;-76
2022/03/25 02:24:41;;;;;;;46.17;23.92;;;4.10;99.90;;;;;;5094321;28;20057;-76
2022/03/25 02:27:07;;;;;;;41.83;23.45;;;4.10;99.90;;;;;;5092976;28;20495;-76
2022/03/25 02:29:33;;;;;;;47.85;25.17;;;4.10;99.90;;;;;;5076170;28;20052;-76
2022/03/25 02:31:59;;;;;;;46.78;23.73;;;4.10;99.90;;;;;;5074674;28;20046;-76
2022/03/25 02:34:25;;;;;;;45.40;24.80;;;4.00;99.90;;;;;;5074940;28;20048;-76
2022/03/25 02:36:51;;;;;;;51.13;24.20;;;4.00;99.90;;;;;;5093998;28;20406;-76
2022/03/25 02:39:17;;;;;;;46.08;25.20;;;4.00;99.90;;;;;;5093509;28;20381;-76
2022/03/25 02:41:43;;;;;;;47.97;25.20;;;4.00;99.90;;;;;;5092880;28;20075;-76
2022/03/25 02:44:10;;;;;;;49.80;25.33;;;4.00;99.90;;;;;;5093624;28;20040;-75
2022/03/25 02:46:36;;;;;;;42.92;23.70;;;4.00;99.90;;;;;;5093020;28;20119;-76
2022/03/25 02:49:02;;;;;;;47.72;24.83;;;3.90;99.90;;;;;;5092886;28;20119;-76
2022/03/25 02:51:27;;;;;;;46.15;25.52;;;3.90;99.90;;;;;;5093186;28;20040;-76
2022/03/25 02:53:56;;;;;;;;;;;3.90;99.90;;;;;;5093894;28;20036;-76
2022/03/25 02:56:22;;;;;;;47.15;24.90;;;3.80;99.90;;;;;;5074383;28;19926;-76
2022/03/25 02:58:47;;;;;;;47.30;25.95;;;3.70;99.90;;;;;;5093487;28;20047;-76
2022/03/25 03:01:13;;;;;;;;;;;3.70;99.90;;;;;;5092990;28;20048;-76
2022/03/25 03:03:40;;;;;;;47.65;25.58;;;3.70;99.90;;;;;;5091901;28;20367;-76
2022/03/25 03:06:07;;;;;;;47.33;24.92;;;3.60;99.90;;;;;;5074665;28;20044;-76
2022/03/25 03:08:35;;;;;;;55.33;27.02;;;3.60;99.90;;;;;;5075308;28;20189;-76
2022/03/25 03:11:01;;;;;;;50.63;26.63;;;3.60;99.90;;;;;;5074596;28;20107;-76
2022/03/25 03:13:27;;;;;;;47.78;25.70;;;3.70;99.90;;;;;;5093004;28;20098;-76
2022/03/25 03:15:53;;;;;;;53.85;26.83;;;3.60;99.90;;;;;;5075043;28;20471;-76
2022/03/25 03:18:20;;;;;;;47.55;25.33;;;3.70;99.90;;;;;;5091615;28;20040;-76
2022/03/25 03:20:45;;;;;;;48.58;25.58;;;3.70;99.90;;;;;;5093201;28;20043;-76
2022/03/25 03:23:11;;;;;;;52.17;26.00;;;3.60;99.90;;;;;;5073967;28;20040;-76
2022/03/25 03:25:36;;;;;;;;;;;3.60;99.90;;;;;;5075344;28;20044;-76
2022/03/25 03:28:03;;;;;;;44.10;23.45;;;3.60;99.90;;;;;;5074914;28;19927;-76
2022/03/25 03:30:29;;;;;;;48.35;25.42;;;3.50;99.90;;;;;;5074432;28;20059;-76
2022/03/25 03:32:57;;;;;;;48.22;24.35;;;3.50;99.90;;;;;;5092112;28;20483;-75
2022/03/25 03:35:27;;;;;;;43.63;24.42;;;3.50;99.90;;;;;;5092793;28;20043;-76
2022/03/25 03:37:54;;;;;;;41.15;23.52;;;3.40;99.90;;;;;;5074039;28;20561;-76
2022/03/25 03:40:19;;;;;;;45.03;23.95;;;3.40;99.90;;;;;;5092234;28;20054;-76
2022/03/25 03:42:46;;;;;;;46.33;24.63;;;3.40;99.90;;;;;;5074578;28;20493;-76
2022/03/25 03:45:13;;;;;;;46.13;23.70;;;3.40;99.90;;;;;;5091907;28;20478;-75
2022/03/25 03:47:40;;;;;;;42.65;22.52;;;3.30;99.90;;;;;;5092481;28;20044;-76
2022/03/25 03:50:09;;;;;;;42.67;23.02;;;3.30;99.90;;;;;;5074278;28;20044;-76
2022/03/25 03:52:35;;;;;;;45.67;24.25;;;3.30;99.90;;;;;;5073786;28;20131;-76
2022/03/25 03:55:03;;;;;;;45.08;22.45;;;3.30;99.90;;;;;;5074804;28;20040;-75
2022/03/25 03:57:32;;;;;;;43.00;23.92;;;3.30;99.90;;;;;;5074477;28;20507;-76
2022/03/25 03:59:57;;;;;;;45.28;24.35;;;3.30;99.90;;;;;;5074065;28;20439;-76
2022/03/25 04:02:23;;;;;;;43.45;23.00;;;3.30;99.90;;;;;;5073997;28;20092;-76
2022/03/25 04:04:48;;;;;;;;;;;3.40;99.90;;;;;;5092889;28;20115;-76
2022/03/25 04:07:15;;;;;;;42.05;22.33;;;3.40;99.90;;;;;;5091834;28;20356;-76
2022/03/25 04:09:41;;;;;;;40.00;21.63;;;3.40;99.90;;;;;;5092340;28;20051;-76
2022/03/25 04:12:08;;;;;;;40.58;21.75;;;3.40;99.90;;;;;;5073972;28;20052;-76
2022/03/25 04:14:35;;;;;;;41.05;21.20;;;3.40;99.90;;;;;;5076598;28;20039;-76
2022/03/25 04:17:01;;;;;;;41.72;22.75;;;3.30;99.90;;;;;;5094981;28;20074;-76
2022/03/25 04:19:26;;;;;;;41.97;22.40;;;3.30;99.90;;;;;;5075463;28;20040;-76
2022/03/25 04:21:52;;;;;;;42.65;21.80;;;3.20;99.90;;;;;;5074949;28;20142;-76
2022/03/25 04:24:18;;;;;;;44.17;22.08;;;3.20;99.90;;;;;;5094515;28;20051;-75
2022/03/25 04:26:43;;;;;;;;;;;3.20;99.90;;;;;;5094796;28;20067;-75
2022/03/25 04:29:09;;;;;;;40.72;22.27;;;3.10;99.90;;;;;;5076254;28;20283;-76
2022/03/25 04:31:34;;;;;;;;;;;3.10;99.90;;;;;;5077405;28;20054;-76
2022/03/25 04:34:00;;;;;;;39.47;21.30;;;3.10;99.90;;;;;;5077199;28;20333;-76
2022/03/25 04:36:25;;;;;;;;;;;3.00;99.90;;;;;;5078121;28;20036;-76
2022/03/25 04:38:51;;;;;;;35.75;19.02;;;3.00;99.90;;;;;;5094752;28;19920;-76
2022/03/25 04:41:17;;;;;;;38.65;19.88;;;3.00;99.90;;;;;;5074871;28;20056;-75
2022/03/25 04:43:42;;;;;;;;;;;2.90;99.90;;;;;;5076091;28;20068;-76
2022/03/25 04:46:08;;;;;;;40.45;20.58;;;2.90;99.90;;;;;;5093446;28;19939;-75
2022/03/25 04:48:34;;;;;;;37.90;20.95;;;2.80;99.90;;;;;;5074803;28;20040;-76
2022/03/25 04:51:00;;;;;;;44.72;22.90;;;2.80;99.90;;;;;;5093936;28;20048;-76
2022/03/25 04:53:26;;;;;;;42.58;21.75;;;2.80;99.90;;;;;;5094373;28;20040;-75
2022/03/25 04:55:52;;;;;;;;;;;2.80;99.90;;;;;;5095640;28;20043;-76
2022/03/25 04:58:17;;;;;;;43.20;22.63;;;2.90;99.90;;;;;;5095293;28;19970;-76
2022/03/25 05:00:43;;;;;;;44.67;22.42;;;2.90;99.90;;;;;;5077717;28;20140;-76
2022/03/25 05:03:09;;;;;;;;;;;2.90;99.90;;;;;;5095556;28;20504;-76
2022/03/25 05:05:34;;;;;;;39.28;21.23;;;2.90;99.90;;;;;;5077651;28;19920;-75
2022/03/25 05:08:00;;;;;;;45.40;21.85;;;2.90;99.90;;;;;;5095270;28;20484;-76
2022/03/25 05:10:27;;;;;;;41.97;20.42;;;2.80;99.90;;;;;;5094429;28;20093;-76
2022/03/25 05:12:53;;;;;;;39.78;21.02;;;2.80;99.90;;;;;;5095592;28;20052;-76
2022/03/25 05:15:19;;;;;;;38.70;19.98;;;2.80;99.90;;;;;;5076886;28;20035;-76
2022/03/25 05:17:45;;;;;;;;;;;2.80;99.90;;;;;;5095200;28;20483;-76
2022/03/25 05:20:11;;;;;;;33.47;18.50;;;2.70;99.90;;;;;;5076813;28;20282;-76
2022/03/25 05:22:37;;;;;;;34.88;18.42;;;2.70;99.90;;;;;;5094421;28;20043;-76
2022/03/25 05:25:06;;;;;;;;;;;2.60;99.90;;;;;;5076379;28;20089;-76
2022/03/25 05:27:42;;;;;;;39.17;20.17;;;2.60;99.90;;;;;;5093990;28;19920;-76
2022/03/25 05:30:08;;;;;;;38.42;19.23;;;2.50;99.90;;;;;;5094031;28;20509;-76
2022/03/25 05:32:34;;;;;;;37.47;19.63;;;2.50;99.90;;;;;;5075310;28;20479;-76
2022/03/25 05:35:00;;;;;;;38.28;20.35;;;2.50;99.90;;;;;;5075616;28;20085;-79
2022/03/25 05:37:26;;;;;;;;;;;2.50;99.90;;;;;;5091762;28;20444;-74
2022/03/25 05:39:51;;;;;;;37.50;20.17;;;2.50;99.90;;;;;;5090487;28;19920;-74
2022/03/25 05:42:17;;;;;;;;;;;2.60;99.90;;;;;;5076001;28;20112;-77
2022/03/25 05:44:42;;;;;;;40.95;20.42;;;2.60;99.90;;;;;;5075698;28;19971;-73
2022/03/25 05:47:08;;;;;;;40.72;22.08;;;2.60;99.90;;;;;;5076136;28;20043;-75
2022/03/25 05:49:34;;;;;;;;;;;2.60;99.90;;;;;;5095189;28;20117;-76
2022/03/25 05:51:59;;;;;;;40.28;21.88;;;2.60;99.90;;;;;;5075377;28;19965;-74
2022/03/25 05:54:25;;;;;;;;;;;2.60;99.90;;;;;;5093718;28;20040;-73
2022/03/25 05:56:50;;;;;;;38.58;20.13;;;2.70;99.90;;;;;;5094297;28;19916;-73
2022/03/25 05:59:16;;;;;;;44.60;20.27;;;2.70;99.90;;;;;;5092978;28;20063;-73
2022/03/25 06:01:42;;;;;;;42.80;21.13;;;2.70;99.90;;;;;;5093676;28;20043;-74
2022/03/25 06:04:08;;;;;;;40.95;21.23;;;2.70;99.90;;;;;;5089443;28;20119;-75
2022/03/25 06:06:34;;;;;;;46.22;21.80;;;2.80;99.90;;;;;;5092400;28;20037;-75
2022/03/25 06:08:59;;;;;;;;;;;2.80;99.90;;;;;;5071464;28;20047;-72
2022/03/25 06:11:25;;;;;;;43.13;21.13;;;2.90;99.90;;;;;;5090915;28;19920;-77
2022/03/25 06:13:50;;;;;;;;;;;2.90;99.90;;;;;;5090769;28;20036;-76
2022/03/25 06:16:17;;;;;;;40.38;20.25;;;3.00;99.90;;;;;;5074076;28;20421;-75
2022/03/25 06:18:42;;;;;;;43.00;21.02;;;3.10;99.90;;;;;;5074037;28;20047;-75
2022/03/25 06:21:08;;;;;;;;;;;3.10;99.90;;;;;;5073238;28;20056;-77
2022/03/25 06:23:34;;;;;;;40.38;21.42;;;3.20;99.90;;;;;;5074438;28;19916;-79
2022/03/25 06:25:59;;;;;;;43.08;22.60;;;3.30;99.90;;;;;;5074024;28;20039;-78
2022/03/25 06:28:25;;;;;;;42.08;22.05;;;3.40;99.90;;;;;;5074438;28;20036;-80
2022/03/25 06:30:51;;;;;;;42.70;22.13;;;3.40;99.90;;;;;;5074064;28;20062;-78
2022/03/25 06:33:16;;;;;;;;;;;3.50;99.90;;;;;;5074642;28;20035;-77
2022/03/25 06:35:44;;;;;;;45.38;23.25;;;3.60;99.90;;;;;;5075397;28;19969;-76
2022/03/25 06:38:10;;;;;;;44.38;23.08;;;3.80;99.90;;;;;;5093149;28;20089;-77
2022/03/25 06:40:36;;;;;;;;;;;3.90;99.90;;;;;;5092767;28;20556;-77
2022/03/25 06:43:02;;;;;;;37.30;20.98;;;4.00;99.90;;;;;;5092848;28;20053;-80
2022/03/25 06:45:28;;;;;;;45.80;21.60;;;4.10;99.90;;;;;;5093081;28;20040;-78
2022/03/25 06:47:54;;;;;;;;;;;4.20;99.90;;;;;;5074571;28;20514;-77
2022/03/25 06:50:21;;;;;;;38.13;20.60;;;4.30;99.90;;;;;;5091908;28;19920;-82
2022/03/25 06:52:47;;;;;;;46.33;22.77;;;4.40;99.90;;;;;;5093406;28;20128;-79
2022/03/25 06:55:14;;;;;;;41.17;22.13;;;4.40;99.90;;;;;;5073980;28;20048;-77
2022/03/25 06:57:40;;;;;;;43.42;22.63;;;4.50;99.90;;;;;;5074901;28;20055;-79
2022/03/25 07:00:10;;;;;;;;;;;4.60;99.90;;;;;;5093087;28;20396;-78
2022/03/25 07:02:36;;;;;;;42.85;23.63;;;4.70;99.90;;;;;;5092696;28;19973;-80
2022/03/25 07:05:05;;;;;;;;;;;4.80;99.90;;;;;;5093023;28;20039;-82
2022/03/25 07:07:33;;;;;;;49.22;24.58;;;5.00;99.90;;;;;;5093219;28;19963;-77
2022/03/25 07:09:59;;;;;;;45.75;23.80;;;5.00;99.90;;;;;;5074838;28;20581;-80
2022/03/25 07:12:25;;;;;;;;;;;5.20;99.90;;;;;;5092845;28;20051;-77
2022/03/25 07:15:01;;;;;;;47.63;25.00;;;5.30;99.90;;;;;;5092872;28;19920;-82
2022/03/25 07:17:26;;;;;;;49.55;24.30;;;5.40;99.90;;;;;;5073850;28;20479;-76
2022/03/25 07:19:52;;;;;;;;;;;5.60;99.90;;;;;;5092879;28;20048;-79
2022/03/25 07:22:17;;;;;;;45.97;24.48;;;5.80;99.90;;;;;;5091763;28;19930;-77
2022/03/25 07:24:43;;;;;;;46.72;25.02;;;5.90;99.90;;;;;;5093163;28;20097;-83
2022/03/25 07:27:08;;;;;;;;;;;6.10;99.90;;;;;;5075237;28;20044;-77
2022/03/25 07:29:37;;;;;;;54.20;25.67;;;6.30;99.90;;;;;;5092123;28;19956;-83
2022/03/25 07:32:04;;;;;;;49.53;25.40;;;6.40;99.90;;;;;;5092480;28;20433;-79
2022/03/25 07:34:31;;;;;;;49.03;25.08;;;6.60;99.90;;;;;;5092940;28;20043;-78
2022/03/25 07:36:57;;;;;;;49.70;25.80;;;6.90;99.90;;;;;;5074133;28;20054;-77
2022/03/25 07:39:23;;;;;;;;;;;7.10;99.90;;;;;;5074221;28;20406;-76
2022/03/25 07:41:48;;;;;;;54.13;26.33;;;7.70;99.90;;;;;;5074328;28;20306;-78
2022/03/25 07:44:14;;;;;;;;;;;8.70;99.90;;;;;;5074029;28;20567;-78
2022/03/25 07:46:39;;;;;;;49.95;26.35;;;9.70;99.90;;;;;;5092446;28;19928;-76
2022/03/25 07:49:06;;;;;;;;;;;10.80;99.90;;;;;;5092207;28;20047;-76
2022/03/25 07:51:32;;;;;;;46.00;25.42;;;11.90;99.90;;;;;;5073729;28;19920;-77
2022/03/25 07:53:57;;;;;;;;;;;13.00;99.90;;;;;;5093418;28;20040;-75
2022/03/25 07:56:29;;;;;;;45.85;24.92;;;13.70;99.90;;;;;;5092188;28;19940;-77
2022/03/25 07:58:55;;;;;;;42.60;24.52;;;14.70;99.90;;;;;;5092025;28;20406;-76
2022/03/25 08:01:21;;;;;;;;;;;15.60;99.90;;;;;;5092069;28;20048;-79
2022/03/25 08:03:46;;;;;;;37.40;24.13;;;16.40;99.90;;;;;;5067650;28;20347;-82
2022/03/25 08:06:12;;;;;;;;;;;16.40;99.90;;;;;;5079983;28;20044;-81
2022/03/25 08:08:38;;;;;;;35.50;22.42;;;17.10;97.60;;;;;;5071264;28;19951;-77
2022/03/25 08:11:03;;;;;;;34.63;22.95;;;17.10;98.90;;;;;;5091841;28;20075;-78
2022/03/25 08:13:29;;;;;;;36.83;23.55;;;17.30;98.80;;;;;;5073749;28;20105;-79
2022/03/25 08:15:55;;;;;;;34.70;23.13;;;17.60;97.90;;;;;;5092359;28;20040;-79
2022/03/25 08:18:21;;;;;;;37.55;21.75;;;18.10;97.20;;;;;;5091335;28;20043;-79
2022/03/25 08:20:48;;;;;;;33.45;22.10;;;18.30;96.10;;;;;;5090385;28;20046;-81
2022/03/25 08:28:46;;;;;;;30.88;20.20;;;19.80;91.30;;;;;;5091958;28;20044;-82
2022/03/25 08:31:11;;;;;;;32.42;21.08;;;20.30;89.40;;;;;;5068866;28;20046;-80
2022/03/25 08:33:37;;;;;;;30.58;20.05;;;21.10;83.50;;;;;;5056614;28;20641;-79
2022/03/25 08:36:03;;;;;;;27.85;19.55;;;20.90;80.90;;;;;;5090944;28;20051;-83
2022/03/25 08:38:31;;;;;;;30.10;20.40;;;21.10;76.10;;;;;;5090169;28;20058;-81
2022/03/25 08:40:56;;;;;;;30.05;20.85;;;21.50;75.50;;;;;;5063743;28;20053;-80
2022/03/25 08:43:22;;;;;;;31.98;20.27;;;21.80;74.80;;;;;;5049793;28;20045;-84
2022/03/25 08:45:47;;;;;;;26.42;17.77;;;21.90;70.50;;;;;;5051791;28;20037;-84
2022/03/25 08:48:13;;;;;;;26.83;19.33;;;22.20;67.80;;;;;;5049599;28;20493;-81
2022/03/25 08:50:39;;;;;;;26.02;19.00;;;22.30;64.00;;;;;;5050559;28;20049;-85
2022/03/25 08:53:05;;;;;;;25.25;17.63;;;22.60;61.80;;;;;;5048590;28;20070;-86
2022/03/25 08:55:31;;;;;;;24.92;17.85;;;23.00;58.70;;;;;;5049590;28;20049;-85
2022/03/25 08:57:57;;;;;;;25.27;18.05;;;23.20;59.00;;;;;;5050561;28;20049;-82
2022/03/25 09:00:22;;;;;;;25.52;18.35;;;23.10;57.90;;;;;;5050833;28;20049;-84
2022/03/25 09:02:49;;;;;;;24.00;17.77;;;23.20;56.80;;;;;;5053497;28;20098;-83
2022/03/25 09:05:15;;;;;;;28.55;18.73;;;23.50;56.60;;;;;;5054978;28;20041;-81
2022/03/25 09:07:42;;;;;;;24.55;18.02;;;23.60;55.70;;;;;;5054365;28;20171;-87
2022/03/25 09:10:10;;;;;;;23.30;15.63;;;24.00;54.70;;;;;;5053405;28;20075;-83
2022/03/25 09:12:39;;;;;;;19.38;14.68;;;24.00;53.10;;;;;;5053505;28;20049;-83
2022/03/25 09:15:07;;;;;;;22.40;15.90;;;24.20;50.90;;;;;;5052732;28;20487;-83
2022/03/25 09:17:33;;;;;;;23.13;16.42;;;24.30;50.40;;;;;;5055336;28;20045;-84
2022/03/25 09:19:58;;;;;;;24.15;15.02;;;24.50;50.20;;;;;;5054030;28;20507;-83
2022/03/25 09:22:24;;;;;;;21.13;14.50;;;24.70;47.80;;;;;;5053595;28;20051;-84
2022/03/25 09:24:49;;;;;;;19.80;14.52;;;24.40;47.90;;;;;;5051828;28;20397;-84
2022/03/25 09:27:15;;;;;;;21.30;14.77;;;24.30;46.90;;;;;;5053676;28;20049;-84
2022/03/25 09:29:41;;;;;;;21.85;15.82;;;24.50;47.60;;;;;;5053957;28;20037;-84
2022/03/25 09:32:08;;;;;;;21.83;15.35;;;24.50;48.60;;;;;;5054077;28;20041;-84
2022/03/25 09:37:17;;;;;;;20.88;15.05;;;24.80;47.00;;;;;;5052118;28;20053;-85
2022/03/25 09:39:43;;;;;;;22.52;15.18;;;25.10;46.50;;;;;;5054566;28;20063;-82
2022/03/25 09:42:09;;;;;;;22.05;15.43;;;25.90;46.10;;;;;;5084846;28;20088;-82
2022/03/25 09:44:39;;;;;;;24.08;17.75;;;25.30;45.80;;;;;;5076407;28;20052;-82
2022/03/25 09:47:05;;;;;;;23.10;15.60;;;25.20;46.80;;;;;;5094521;28;20399;-83
2022/03/25 09:49:31;;;;;;;24.75;16.55;;;24.90;45.00;;;;;;5076595;28;20050;-82
2022/03/25 09:51:58;;;;;;;21.15;15.95;;;25.10;45.60;;;;;;5075673;28;20032;-82
2022/03/25 09:54:24;;;;;;;21.52;16.92;;;25.50;46.00;;;;;;5076410;28;20052;-83
2022/03/25 09:56:49;;;;;;;21.75;16.30;;;25.60;46.40;;;;;;5076436;28;20185;-82
2022/03/25 09:59:17;;;;;;;20.67;16.13;;;26.00;46.00;;;;;;5093877;28;20391;-82
2022/03/25 10:01:43;;;;;;;19.38;15.82;;;25.90;44.80;;;;;;5094369;28;20491;-82
2022/03/25 10:04:08;;;;;;;21.17;15.75;;;25.60;43.80;;;;;;5075237;28;20133;-82
2022/03/25 10:06:48;;;;;;;22.75;15.80;;;25.60;44.30;;;;;;5075944;28;20033;-82
2022/03/25 10:09:21;;;;;;;20.20;15.60;;;25.50;41.80;;;;;;5094135;28;20051;-82
2022/03/25 10:11:47;;;;;;;20.80;15.52;;;25.50;44.20;;;;;;5075262;28;20122;-83
2022/03/25 10:14:28;;;;;;;20.70;15.60;;;25.90;42.70;;;;;;5094104;28;20090;-82
2022/03/25 10:16:54;;;;;;;19.33;14.55;;;26.10;42.40;;;;;;5076062;28;20052;-82
2022/03/25 10:19:21;;;;;;;19.02;14.95;;;26.50;41.70;;;;;;5075035;28;20174;-82
2022/03/25 10:21:53;;;;;;;20.45;14.98;;;26.50;41.20;;;;;;5075891;28;20044;-81
2022/03/25 10:24:35;;;;;;;19.60;14.75;;;26.40;41.30;;;;;;5093788;28;20032;-81
2022/03/25 10:27:06;;;;;;;18.73;14.63;;;26.30;42.00;;;;;;5093900;28;20048;-82
2022/03/25 10:29:32;;;;;;;18.77;15.30;;;26.40;40.90;;;;;;5093731;28;20059;-82
2022/03/25 10:32:09;;;;;;;19.92;15.75;;;26.30;41.60;;;;;;5075606;28;20500;-81
2022/03/25 10:34:40;;;;;;;18.63;15.32;;;26.50;40.50;;;;;;5075525;28;20048;-82
2022/03/25 10:37:10;;;;;;;18.27;15.00;;;26.20;41.20;;;;;;5075007;28;20526;-82
2022/03/25 10:39:35;;;;;;;20.48;15.60;;;26.40;41.70;;;;;;5093074;28;20121;-81
2022/03/25 10:42:03;;;;;;;20.08;15.15;;;26.10;40.80;;;;;;5093291;28;20056;-81
2022/03/25 10:44:41;;;;;;;21.02;16.77;;;26.20;42.20;;;;;;5058614;28;20041;-82
2022/03/25 10:47:15;;;;;;;17.60;14.90;;;26.70;41.00;;;;;;5092984;28;20130;-82
2022/03/25 10:49:46;;;;;;;20.48;14.88;;;26.20;39.10;;;;;;5093699;28;20377;-82
2022/03/25 10:52:27;;;;;;;20.75;15.68;;;26.60;40.10;;;;;;5075131;28;20151;-82
2022/03/25 10:55:20;;;;;;;19.63;15.80;;;26.10;38.80;;;;;;5092611;28;20162;-81
2022/03/25 10:57:54;;;;;;;19.35;14.93;;;26.30;40.10;;;;;;5093384;28;20052;-81
2022/03/25 11:00:23;;;;;;;20.88;15.60;;;26.10;40.00;;;;;;5092199;28;20487;-82
2022/03/25 11:02:49;;;;;;;21.20;16.27;;;26.40;40.20;;;;;;5075228;28;20429;-82
2022/03/25 11:05:16;;;;;;;21.20;16.75;;;26.70;38.90;;;;;;5092601;28;20044;-81
2022/03/25 11:07:44;;;;;;;20.98;15.75;;;26.30;40.10;;;;;;5074598;28;20048;-81
2022/03/25 11:10:14;;;;;;;22.52;16.75;;;26.40;40.10;;;;;;5093070;28;20043;-81
2022/03/25 11:12:42;;;;;;;20.52;15.95;;;26.50;40.10;;;;;;5075161;28;20055;-81
2022/03/25 11:15:10;;;;;;;21.00;15.38;;;26.60;39.70;;;;;;5073962;28;20055;-81
2022/03/25 11:17:38;;;;;;;21.13;15.98;;;26.30;40.10;;;;;;5074946;28;20051;-82
2022/03/25 11:20:06;;;;;;;21.17;15.68;;;26.30;37.90;;;;;;5092818;28;20036;-80
2022/03/25 11:22:33;;;;;;;20.25;14.90;;;26.00;39.20;;;;;;5092188;28;20086;-81
2022/03/25 11:25:02;;;;;;;20.20;14.80;;;26.20;40.40;;;;;;5092589;28;20044;-83
2022/03/25 11:27:31;;;;;;;20.75;14.45;;;26.20;40.00;;;;;;5092912;28;20079;-82
2022/03/25 11:30:09;;;;;;;20.23;14.40;;;26.20;38.10;;;;;;5092361;28;20040;-85
2022/03/25 11:32:47;;;;;;;20.05;13.68;;;25.80;36.80;;;;;;5092708;28;20123;-86
2022/03/25 11:35:19;;;;;;;20.48;14.38;;;26.00;37.20;;;;;;5092825;28;20048;-86
2022/03/25 11:37:45;;;;;;;22.60;15.68;;;25.90;37.90;;;;;;5075021;28;20048;-86
2022/03/25 11:40:14;;;;;;;23.10;15.40;;;26.10;38.00;;;;;;5074160;28;20044;-85
2022/03/25 11:42:46;;;;;;;23.95;17.98;;;25.80;39.50;;;;;;5074684;28;20107;-85
2022/03/25 11:45:21;;;;;;;25.30;19.10;;;26.60;40.20;;;;;;5092653;28;20066;-85
2022/03/25 11:48:04;;;;;;;27.63;20.55;;;26.10;41.20;;;;;;5074987;28;20036;-85
2022/03/25 11:50:31;;;;;;;26.52;20.42;;;25.70;41.30;;;;;;5074728;28;20048;-85
2022/03/25 11:52:58;;;;;;;24.88;18.08;;;25.80;40.80;;;;;;5092908;28;20048;-84
2022/03/25 11:55:24;;;;;;;25.35;17.73;;;25.70;40.20;;;;;;5074845;28;20056;-85
2022/03/25 11:57:50;;;;;;;25.10;16.88;;;25.40;39.20;;;;;;5092844;28;20046;-85
2022/03/25 12:00:24;;;;;;;21.35;15.60;;;25.70;39.00;;;;;;5073702;28;20123;-84
2022/03/25 12:03:04;;;;;;;21.23;15.55;;;25.70;38.00;;;;;;5092261;28;20496;-85
2022/03/25 12:05:30;;;;;;;22.65;16.77;;;25.50;37.20;;;;;;5073597;28;20044;-85
2022/03/25 12:08:20;;;;;;;23.30;17.40;;;25.70;37.90;;;;;;5092845;28;20098;-84
2022/03/25 12:10:46;;;;;;;22.73;16.63;;;25.70;37.90;;;;;;5057449;28;20056;-84
2022/03/25 12:13:12;;;;;;;21.02;14.60;;;25.80;38.80;;;;;;5073887;28;20484;-84
2022/03/25 12:15:42;;;;;;;23.15;16.63;;;25.70;36.80;;;;;;5092392;28;20036;-84
2022/03/25 12:18:39;;;;;;;21.85;15.45;;;25.90;37.90;;;;;;5073249;28;20048;-83
2022/03/25 12:21:10;;;;;;;24.77;16.90;;;25.90;36.50;;;;;;5092074;28;20392;-84
2022/03/25 12:23:35;;;;;;;23.50;16.20;;;25.80;37.60;;;;;;5074520;28;20110;-80
2022/03/25 12:26:02;;;;;;;22.08;15.68;;;25.60;37.90;;;;;;5073649;28;20495;-80
2022/03/25 12:28:27;;;;;;;21.02;14.75;;;26.10;38.10;;;;;;5091715;28;20044;-80
2022/03/25 12:30:54;;;;;;;21.85;15.80;;;26.20;38.30;;;;;;5073756;28;20056;-82
2022/03/25 12:33:20;;;;;;;20.80;15.18;;;26.00;37.50;;;;;;5073184;28;20133;-82
2022/03/25 12:35:47;;;;;;;21.13;15.77;;;25.80;37.00;;;;;;5076943;28;20486;-83
2022/03/25 12:38:23;;;;;;;22.30;15.27;;;25.60;37.00;;;;;;5095945;28;20048;-84
2022/03/25 12:40:51;;;;;;;23.15;15.45;;;25.40;36.80;;;;;;5076991;28;20056;-83
2022/03/25 12:43:17;;;;;;;26.65;15.88;;;25.30;36.70;;;;;;5095603;28;20509;-83
2022/03/25 12:45:49;;;;;;;21.20;14.77;;;25.30;38.00;;;;;;5076944;28;20052;-83
2022/03/25 12:48:23;;;;;;;21.15;14.27;;;25.10;38.50;;;;;;5095564;28;20093;-83
2022/03/25 12:51:05;;;;;;;20.98;13.75;;;25.00;39.40;;;;;;5095891;28;20040;-83
2022/03/25 12:53:30;;;;;;;21.80;15.10;;;24.70;39.40;;;;;;5095106;28;20097;-83
2022/03/25 12:55:57;;;;;;;22.58;15.40;;;24.40;40.60;;;;;;5077716;28;20044;-83
2022/03/25 12:58:24;;;;;;;22.13;15.35;;;24.80;40.60;;;;;;5095620;28;20130;-83